createdAt,value
2018-02-07T00:01:07.378Z,22.83
2018-02-07T00:03:35.001Z,21.40
2018-02-07T00:06:02.543Z,22.23
2018-02-07T00:08:30.079Z,22.60
2018-02-07T00:10:57.962Z,21.83
2018-02-07T00:13:25.543Z,23.43
2018-02-07T00:15:53.180Z,22.60
2018-02-07T00:18:20.886Z,22.00
2018-02-07T00:20:48.953Z,22.87
2018-02-07T00:23:16.554Z,22.20
2018-02-07T00:25:44.289Z,23.20
2018-02-07T00:28:11.888Z,24.70
2018-02-07T00:30:39.545Z,24.70
2018-02-07T00:33:07.173Z,23.00
2018-02-07T00:35:34.682Z,23.33
2018-02-07T00:38:02.295Z,20.47
2018-02-07T00:40:29.834Z,22.90
2018-02-07T00:42:58.123Z,22.37
2018-02-07T00:45:25.738Z,23.43
2018-02-07T00:47:53.483Z,21.10
2018-02-07T00:50:21.108Z,22.50
2018-02-07T00:52:48.703Z,21.33
2018-02-07T00:55:16.267Z,22.13
2018-02-07T00:57:43.832Z,22.57
2018-02-07T01:00:11.399Z,21.27
2018-02-07T01:02:38.998Z,21.93
2018-02-07T01:05:06.543Z,21.15
2018-02-07T01:07:34.155Z,22.40
2018-02-07T01:10:01.705Z,22.17
2018-02-07T01:12:29.403Z,22.00
2018-02-07T01:14:56.928Z,21.90
2018-02-07T01:17:24.506Z,24.60
2018-02-07T01:19:52.043Z,22.23
2018-02-07T01:22:19.604Z,20.83
2018-02-07T01:24:47.147Z,23.47
2018-02-07T01:27:14.674Z,23.77
2018-02-07T01:29:42.270Z,23.27
2018-02-07T01:32:09.799Z,22.35
2018-02-07T01:34:37.413Z,21.10
2018-02-07T01:37:04.934Z,22.70
2018-02-07T01:39:32.548Z,22.07
2018-02-07T01:42:00.173Z,20.73
2018-02-07T01:44:27.763Z,21.57
2018-02-07T01:46:55.294Z,21.33
2018-02-07T01:49:22.831Z,23.60
2018-02-07T01:51:50.459Z,23.67
2018-02-07T01:54:18.068Z,24.13
2018-02-07T01:56:45.663Z,22.57
2018-02-07T01:59:13.283Z,22.40
2018-02-07T02:01:41.760Z,24.90
2018-02-07T02:04:09.331Z,24.13
2018-02-07T02:06:36.919Z,22.77
2018-02-07T02:09:04.567Z,22.63
2018-02-07T02:11:32.183Z,23.47
2018-02-07T02:13:59.708Z,21.60
2018-02-07T02:16:27.245Z,22.10
2018-02-07T02:18:54.763Z,22.17
2018-02-07T02:21:22.374Z,24.47
2018-02-07T02:23:50.019Z,24.13
2018-02-07T02:26:17.874Z,23.70
2018-02-07T02:28:45.514Z,22.60
2018-02-07T02:31:13.059Z,21.17
2018-02-07T02:33:40.599Z,23.50
2018-02-07T02:36:19.991Z,21.60
2018-02-07T02:38:47.558Z,23.57
2018-02-07T02:41:15.088Z,22.90
2018-02-07T02:43:42.664Z,22.10
2018-02-07T02:46:10.178Z,24.00
2018-02-07T02:48:37.799Z,21.40
2018-02-07T02:51:05.329Z,22.50
2018-02-07T02:53:32.883Z,21.47
2018-02-07T02:56:00.398Z,22.20
2018-02-07T02:58:27.933Z,21.37
2018-02-07T03:00:55.460Z,22.83
2018-02-07T03:03:23.033Z,24.93
2018-02-07T03:05:53.280Z,24.70
2018-02-07T03:08:20.800Z,24.30
2018-02-07T03:10:48.503Z,24.73
2018-02-07T03:13:16.037Z,22.17
2018-02-07T03:15:43.709Z,21.87
2018-02-07T03:18:11.209Z,21.40
2018-02-07T03:20:38.804Z,22.17
2018-02-07T03:23:06.388Z,22.30
2018-02-07T03:25:34.018Z,21.57
2018-02-07T03:28:01.592Z,21.30
2018-02-07T03:30:29.123Z,23.40
2018-02-07T03:32:56.660Z,22.30
2018-02-07T03:35:24.243Z,21.27
2018-02-07T03:37:51.800Z,22.20
2018-02-07T03:40:19.484Z,21.93
2018-02-07T03:42:47.015Z,22.77
2018-02-07T03:45:14.579Z,23.05
2018-02-07T03:47:42.084Z,20.30
2018-02-07T03:50:09.633Z,21.23
2018-02-07T03:52:37.204Z,20.77
2018-02-07T03:55:04.805Z,20.20
2018-02-07T03:57:32.325Z,21.10
2018-02-07T03:59:59.838Z,21.98
2018-02-07T04:02:27.483Z,22.13
2018-02-07T04:04:55.194Z,21.67
2018-02-07T04:07:22.748Z,21.63
2018-02-07T04:09:50.333Z,19.00
2018-02-07T04:12:17.891Z,20.10
2018-02-07T04:14:45.470Z,21.17
2018-02-07T04:17:13.070Z,22.50
2018-02-07T04:19:40.673Z,21.07
2018-02-07T04:22:08.255Z,19.73
2018-02-07T04:24:35.784Z,21.40
2018-02-07T04:27:03.324Z,21.17
2018-02-07T04:29:30.883Z,19.60
2018-02-07T04:31:58.420Z,20.00
2018-02-07T04:34:25.939Z,21.00
2018-02-07T04:36:53.481Z,20.27
2018-02-07T04:39:21.096Z,18.90
2018-02-07T04:41:48.624Z,20.60
2018-02-07T04:44:16.213Z,21.15
2018-02-07T04:46:43.799Z,19.70
2018-02-07T04:49:11.314Z,21.57
2018-02-07T04:51:38.896Z,21.00
2018-02-07T04:54:06.503Z,18.80
2018-02-07T04:56:34.034Z,19.63
2018-02-07T04:59:01.621Z,20.02
2018-02-07T05:01:29.155Z,19.33
2018-02-07T05:03:56.793Z,20.30
2018-02-07T05:06:24.384Z,19.47
2018-02-07T05:08:51.945Z,19.57
2018-02-07T05:11:19.485Z,20.40
2018-02-07T05:13:47.134Z,21.60
2018-02-07T05:16:14.645Z,22.00
2018-02-07T05:18:42.170Z,20.97
2018-02-07T05:21:09.753Z,19.97
2018-02-07T05:23:37.366Z,21.25
2018-02-07T05:26:04.906Z,18.43
2018-02-07T05:28:33.154Z,20.05
2018-02-07T05:31:00.814Z,21.10
2018-02-07T05:33:28.323Z,25.37
2018-02-07T05:35:55.855Z,22.80
2018-02-07T05:38:23.448Z,21.50
2018-02-07T05:40:51.036Z,20.83
2018-02-07T05:43:18.708Z,21.40
2018-02-07T05:45:46.602Z,22.90
2018-02-07T05:48:14.159Z,20.00
2018-02-07T05:50:42.683Z,20.07
2018-02-07T05:53:10.265Z,20.73
2018-02-07T05:55:37.793Z,20.60
2018-02-07T05:58:05.321Z,21.33
2018-02-07T06:00:32.858Z,21.23
2018-02-07T06:03:00.370Z,29.23
2018-02-07T06:05:27.884Z,22.43
2018-02-07T06:07:55.476Z,21.27
2018-02-07T06:10:23.103Z,20.83
2018-02-07T06:12:50.675Z,21.70
2018-02-07T06:15:18.274Z,23.13
2018-02-07T06:17:45.970Z,20.73
2018-02-07T06:20:13.843Z,21.97
2018-02-07T06:22:41.389Z,22.17
2018-02-07T06:25:08.995Z,21.58
2018-02-07T06:27:36.565Z,21.63
2018-02-07T06:30:04.094Z,20.60
2018-02-07T06:32:31.758Z,21.47
2018-02-07T06:34:59.394Z,22.00
2018-02-07T06:37:26.979Z,21.70
2018-02-07T06:39:54.631Z,22.43
2018-02-07T06:42:22.200Z,22.60
2018-02-07T06:44:49.986Z,21.30
2018-02-07T06:47:17.524Z,22.07
2018-02-07T06:49:45.049Z,21.33
2018-02-07T06:52:12.594Z,23.63
2018-02-07T06:54:40.128Z,21.90
2018-02-07T06:57:07.699Z,20.75
2018-02-07T06:59:35.263Z,32.00
2018-02-07T07:02:02.869Z,24.87
2018-02-07T07:04:30.424Z,21.97
2018-02-07T07:06:57.948Z,22.67
2018-02-07T07:09:25.633Z,23.67
2018-02-07T07:11:53.284Z,23.77
2018-02-07T07:14:20.834Z,25.23
2018-02-07T07:16:48.369Z,24.80
2018-02-07T07:19:15.884Z,24.50
2018-02-07T07:21:43.404Z,24.57
2018-02-07T07:24:11.029Z,23.83
2018-02-07T07:26:38.675Z,24.27
2018-02-07T07:29:06.264Z,24.90
2018-02-07T07:31:33.794Z,26.00
2018-02-07T07:34:01.634Z,27.37
2018-02-07T07:36:29.154Z,31.80
2018-02-07T07:38:56.885Z,26.20
2018-02-07T07:41:24.438Z,27.57
2018-02-07T07:43:51.975Z,29.07
2018-02-07T07:46:19.588Z,25.00
2018-02-07T07:48:47.169Z,24.60
2018-02-07T07:51:14.724Z,24.40
2018-02-07T07:53:42.256Z,25.20
2018-02-07T07:56:09.778Z,27.10
2018-02-07T07:58:37.298Z,25.40
2018-02-07T08:01:04.825Z,25.97
2018-02-07T08:03:32.344Z,24.63
2018-02-07T08:05:59.966Z,38.40
2018-02-07T08:08:27.495Z,24.77
2018-02-07T08:10:55.040Z,24.92
2018-02-07T08:13:22.703Z,24.30
2018-02-07T08:15:50.215Z,25.23
2018-02-07T08:18:17.827Z,27.73
2018-02-07T08:20:45.374Z,26.20
2018-02-07T08:23:12.963Z,24.23
2018-02-07T08:25:40.503Z,26.47
2018-02-07T08:28:08.091Z,24.87
2018-02-07T08:30:35.739Z,24.60
2018-02-07T08:33:03.288Z,25.70
2018-02-07T08:35:30.877Z,26.40
2018-02-07T08:37:58.444Z,25.27
2018-02-07T08:40:26.042Z,25.73
2018-02-07T08:42:53.655Z,23.33
2018-02-07T08:45:21.398Z,23.33
2018-02-07T08:47:49.045Z,25.77
2018-02-07T08:50:16.630Z,23.93
2018-02-07T08:52:44.144Z,24.80
2018-02-07T08:55:11.664Z,25.10
2018-02-07T08:57:39.328Z,23.47
2018-02-07T09:00:06.914Z,24.83
2018-02-07T09:02:34.431Z,25.20
2018-02-07T09:05:01.957Z,24.83
2018-02-07T09:07:29.494Z,71.40
2018-02-07T09:09:57.025Z,28.87
2018-02-07T09:12:24.580Z,35.50
2018-02-07T09:14:52.109Z,29.65
2018-02-07T09:17:19.621Z,30.40
2018-02-07T09:19:47.164Z,26.87
2018-02-07T09:22:14.684Z,27.30
2018-02-07T09:24:42.298Z,37.63
2018-02-07T09:27:09.865Z,37.70
2018-02-07T09:29:37.404Z,42.77
2018-02-07T09:32:05.063Z,32.20
2018-02-07T09:34:32.643Z,34.80
2018-02-07T09:37:00.277Z,46.65
2018-02-07T09:39:27.789Z,35.00
2018-02-07T09:41:55.329Z,34.00
2018-02-07T09:44:22.849Z,32.33
2018-02-07T09:46:50.378Z,32.60
2018-02-07T09:49:17.914Z,28.80
2018-02-07T09:51:45.448Z,30.00
2018-02-07T09:54:13.058Z,26.37
2018-02-07T09:56:40.649Z,27.40
2018-02-07T09:59:08.483Z,29.20
2018-02-07T10:01:36.035Z,25.20
2018-02-07T10:04:03.609Z,28.90
2018-02-07T10:06:31.200Z,33.10
2018-02-07T10:08:58.843Z,34.20
2018-02-07T10:11:26.517Z,31.70
2018-02-07T10:13:54.241Z,30.43
2018-02-07T10:16:21.758Z,27.40
2018-02-07T10:18:49.280Z,30.30
2018-02-07T10:21:16.820Z,28.10
2018-02-07T10:23:44.358Z,28.87
2018-02-07T10:26:11.899Z,28.47
2018-02-07T10:28:39.531Z,28.30
2018-02-07T10:31:07.134Z,28.17
2018-02-07T10:33:34.791Z,28.20
2018-02-07T10:36:02.313Z,25.93
2018-02-07T10:38:29.827Z,29.90
2018-02-07T10:40:57.359Z,30.77
2018-02-07T10:43:24.879Z,28.27
2018-02-07T10:45:52.521Z,27.83
2018-02-07T10:48:20.126Z,28.15
2018-02-07T10:50:47.659Z,29.23
2018-02-07T10:53:15.184Z,30.10
2018-02-07T10:55:42.779Z,28.27
2018-02-07T10:58:10.326Z,29.60
2018-02-07T11:00:37.874Z,29.37
2018-02-07T11:03:05.405Z,32.73
2018-02-07T11:05:32.924Z,31.33
2018-02-07T11:08:00.623Z,30.20
2018-02-07T11:10:28.173Z,29.50
2018-02-07T11:12:55.695Z,27.90
2018-02-07T11:15:23.268Z,29.20
2018-02-07T11:17:50.886Z,30.67
2018-02-07T11:20:18.414Z,28.93
2018-02-07T11:22:45.974Z,28.87
2018-02-07T11:25:13.506Z,28.90
2018-02-07T11:27:41.069Z,31.30
2018-02-07T11:30:08.618Z,32.80
2018-02-07T11:32:36.194Z,30.80
2018-02-07T11:35:03.844Z,31.97
2018-02-07T11:37:31.456Z,32.40
2018-02-07T11:39:58.998Z,28.47
2018-02-07T11:42:26.513Z,30.75
2018-02-07T11:44:54.344Z,31.00
2018-02-07T11:47:21.913Z,30.10
2018-02-07T11:49:49.499Z,31.27
2018-02-07T11:52:17.114Z,30.80
2018-02-07T11:54:44.761Z,32.00
2018-02-07T11:57:12.275Z,31.90
2018-02-07T11:59:39.811Z,32.53
2018-02-07T12:02:07.350Z,31.67
2018-02-07T12:04:34.895Z,33.17
2018-02-07T12:07:02.476Z,32.60
2018-02-07T12:09:30.038Z,31.77
2018-02-07T12:11:57.779Z,33.07
2018-02-07T12:14:25.343Z,32.67
2018-02-07T12:16:52.964Z,33.20
2018-02-07T12:19:20.489Z,36.07
2018-02-07T12:21:48.035Z,35.53
2018-02-07T12:24:15.600Z,35.97
2018-02-07T12:26:43.169Z,36.03
2018-02-07T12:29:10.711Z,34.10
2018-02-07T12:31:38.309Z,35.13
2018-02-07T12:34:05.841Z,34.50
2018-02-07T12:36:33.460Z,33.43
2018-02-07T12:39:01.076Z,33.83
2018-02-07T12:41:28.610Z,31.27
2018-02-07T12:43:56.160Z,33.70
2018-02-07T12:46:23.690Z,30.53
2018-02-07T12:48:51.325Z,32.73
2018-02-07T12:51:18.896Z,33.43
2018-02-07T12:53:46.441Z,32.42
2018-02-07T12:56:13.995Z,36.10
2018-02-07T12:58:41.598Z,38.73
2018-02-07T13:01:09.166Z,63.40
2018-02-07T13:03:36.830Z,49.80
2018-02-07T13:06:04.370Z,38.93
2018-02-07T13:08:32.866Z,56.73
2018-02-07T13:11:00.391Z,41.57
2018-02-07T13:13:27.941Z,32.70
2018-02-07T13:15:55.517Z,32.10
2018-02-07T13:18:23.036Z,29.13
2018-02-07T13:20:50.673Z,32.90
2018-02-07T13:23:18.189Z,30.37
2018-02-07T13:25:45.778Z,32.00
2018-02-07T13:28:13.296Z,33.70
2018-02-07T13:30:40.831Z,34.07
2018-02-07T13:33:08.755Z,33.00
2018-02-07T13:35:36.404Z,31.03
2018-02-07T13:38:03.934Z,30.97
2018-02-07T13:40:31.454Z,33.30
2018-02-07T13:42:59.181Z,34.28
2018-02-07T13:45:26.699Z,36.30
2018-02-07T13:47:54.236Z,36.13
2018-02-07T13:50:21.795Z,34.07
2018-02-07T13:52:49.319Z,36.67
2018-02-07T13:55:16.910Z,36.10
2018-02-07T13:57:44.560Z,34.20
2018-02-07T14:00:12.086Z,33.73
2018-02-07T14:02:39.629Z,33.30
2018-02-07T14:05:07.219Z,33.30
2018-02-07T14:07:34.753Z,33.97
2018-02-07T14:10:02.285Z,33.57
2018-02-07T14:12:29.799Z,38.53
2018-02-07T14:14:57.471Z,32.97
2018-02-07T14:17:25.069Z,34.15
2018-02-07T14:19:52.644Z,32.13
2018-02-07T14:22:20.219Z,34.37
2018-02-07T14:24:47.745Z,35.20
2018-02-07T14:27:15.293Z,32.77
2018-02-07T14:29:42.868Z,31.93
2018-02-07T14:32:10.399Z,32.37
2018-02-07T14:34:37.946Z,33.53
2018-02-07T14:37:05.704Z,34.10
2018-02-07T14:39:33.318Z,33.42
2018-02-07T14:42:01.774Z,38.23
2018-02-07T14:44:29.320Z,37.77
2018-02-07T14:46:56.930Z,33.17
2018-02-07T14:49:24.448Z,32.37
2018-02-07T14:51:52.106Z,32.07
2018-02-07T14:54:19.630Z,32.70
2018-02-07T14:56:47.221Z,32.90
2018-02-07T14:59:14.834Z,33.43
2018-02-07T15:01:42.363Z,39.40
2018-02-07T15:04:09.939Z,42.10
2018-02-07T15:06:37.476Z,37.95
2018-02-07T15:09:05.027Z,34.57
2018-02-07T15:11:32.544Z,32.00
2018-02-07T15:14:00.134Z,35.00
2018-02-07T15:16:27.675Z,34.50
2018-02-07T15:18:55.240Z,36.60
2018-02-07T15:21:22.928Z,33.90
2018-02-07T15:23:50.468Z,33.00
2018-02-07T15:26:18.099Z,33.53
2018-02-07T15:28:45.695Z,35.90
2018-02-07T15:31:13.215Z,34.42
2018-02-07T15:33:40.809Z,35.73
2018-02-07T15:36:08.340Z,31.80
2018-02-07T15:38:35.940Z,33.63
2018-02-07T15:41:03.558Z,33.97
2018-02-07T15:43:31.118Z,33.27
2018-02-07T15:45:58.810Z,34.53
2018-02-07T15:48:26.470Z,29.97
2018-02-07T15:50:53.995Z,29.00
2018-02-07T15:53:21.596Z,32.97
2018-02-07T15:55:49.196Z,34.77
2018-02-07T15:58:16.795Z,31.73
2018-02-07T16:00:44.410Z,31.42
2018-02-07T16:03:11.926Z,30.60
2018-02-07T16:05:39.618Z,30.23
2018-02-07T16:08:07.214Z,33.27
2018-02-07T16:10:34.819Z,30.93
2018-02-07T16:13:02.385Z,30.88
2018-02-07T16:15:29.964Z,31.90
2018-02-07T16:17:57.591Z,29.40
2018-02-07T16:20:25.160Z,28.43
2018-02-07T16:22:52.745Z,29.70
2018-02-07T16:25:20.305Z,27.03
2018-02-07T16:27:47.835Z,27.30
2018-02-07T16:30:15.950Z,25.73
2018-02-07T16:32:43.575Z,27.50
2018-02-07T16:35:11.169Z,26.87
2018-02-07T16:37:38.710Z,25.42
2018-02-07T16:40:06.254Z,26.43
2018-02-07T16:42:33.974Z,23.73
2018-02-07T16:45:01.510Z,25.63
2018-02-07T16:47:29.025Z,24.98
2018-02-07T16:49:56.555Z,25.43
2018-02-07T16:52:24.079Z,29.87
2018-02-07T16:54:51.619Z,28.33
2018-02-07T16:57:19.191Z,26.00
2018-02-07T16:59:46.723Z,25.53
2018-02-07T17:02:14.249Z,25.35
2018-02-07T17:04:41.788Z,26.43
2018-02-07T17:07:09.464Z,26.37
2018-02-07T17:09:37.131Z,25.40
2018-02-07T17:12:04.674Z,25.83
2018-02-07T17:14:32.250Z,27.00
2018-02-07T17:16:59.851Z,25.57
2018-02-07T17:19:27.396Z,26.40
2018-02-07T17:21:54.990Z,27.63
2018-02-07T17:24:22.504Z,26.27
2018-02-07T17:26:50.026Z,29.87
2018-02-07T17:29:17.555Z,25.37
2018-02-07T17:31:45.261Z,25.63
2018-02-07T17:34:12.794Z,27.50
2018-02-07T17:36:40.330Z,25.87
2018-02-07T17:39:07.979Z,26.17
2018-02-07T17:41:35.529Z,25.00
2018-02-07T17:44:03.051Z,26.10
2018-02-07T17:46:30.674Z,26.13
2018-02-07T17:48:58.227Z,24.73
2018-02-07T17:51:25.845Z,27.20
2018-02-07T17:53:53.361Z,24.63
2018-02-07T17:56:20.995Z,24.77
2018-02-07T17:58:48.546Z,27.50
2018-02-07T18:01:16.091Z,31.40
2018-02-07T18:03:43.683Z,28.30
2018-02-07T18:06:11.221Z,26.07
2018-02-07T18:08:38.826Z,26.13
2018-02-07T18:11:06.448Z,25.03
2018-02-07T18:13:34.002Z,26.93
2018-02-07T18:16:01.670Z,26.13
2018-02-07T18:18:29.240Z,25.80
2018-02-07T18:20:56.830Z,25.10
2018-02-07T18:23:24.378Z,28.07
2018-02-07T18:25:51.916Z,26.97
2018-02-07T18:28:19.470Z,26.10
2018-02-07T18:30:47.015Z,26.67
2018-02-07T18:33:14.637Z,63.53
2018-02-07T18:35:42.255Z,29.50
2018-02-07T18:38:09.870Z,29.37
2018-02-07T18:40:37.404Z,27.48
2018-02-07T18:43:04.949Z,28.42
2018-02-07T18:45:32.592Z,29.10
2018-02-07T18:48:00.181Z,27.47
2018-02-07T18:50:27.820Z,28.20
2018-02-07T18:52:55.536Z,26.07
2018-02-07T18:55:23.072Z,26.90
2018-02-07T18:57:50.650Z,27.60
2018-02-07T19:00:18.197Z,28.12
2018-02-07T19:02:45.826Z,28.20
2018-02-07T19:05:13.360Z,28.50
2018-02-07T19:07:40.972Z,28.90
2018-02-07T19:10:08.579Z,33.57
2018-02-07T19:12:36.106Z,29.50
2018-02-07T19:15:03.673Z,29.58
2018-02-07T19:17:31.299Z,28.53
2018-02-07T19:19:58.867Z,30.47
2018-02-07T19:22:26.426Z,27.67
2018-02-07T19:24:54.046Z,29.23
2018-02-07T19:27:21.615Z,29.23
2018-02-07T19:29:49.155Z,26.37
2018-02-07T19:32:16.805Z,26.23
2018-02-07T19:34:44.476Z,25.97
2018-02-07T19:37:12.027Z,26.80
2018-02-07T19:39:39.558Z,26.77
2018-02-07T19:42:07.186Z,28.97
2018-02-07T19:44:34.715Z,27.77
2018-02-07T19:47:02.374Z,28.70
2018-02-07T19:49:30.063Z,28.47
2018-02-07T19:51:57.587Z,27.50
2018-02-07T19:54:25.135Z,30.50
2018-02-07T19:56:52.733Z,28.67
2018-02-07T19:59:20.365Z,28.47
2018-02-07T20:01:47.904Z,27.03
2018-02-07T20:04:15.446Z,26.97
2018-02-07T20:06:43.074Z,28.13
2018-02-07T20:09:10.690Z,26.83
2018-02-07T20:11:38.226Z,26.73
2018-02-07T20:14:05.782Z,26.85
2018-02-07T20:16:33.344Z,27.27
2018-02-07T20:19:00.941Z,29.02
2018-02-07T20:21:28.504Z,28.70
2018-02-07T20:23:56.304Z,28.53
2018-02-07T20:26:23.884Z,29.67
2018-02-07T20:28:51.615Z,29.23
2018-02-07T20:31:19.481Z,29.10
2018-02-07T20:33:47.153Z,28.87
2018-02-07T20:36:14.881Z,28.00
2018-02-07T20:38:42.517Z,27.77
2018-02-07T20:41:10.104Z,29.27
2018-02-07T20:43:37.752Z,28.90
2018-02-07T20:46:05.677Z,29.83
2018-02-07T20:48:33.234Z,28.53
2018-02-07T20:51:00.844Z,27.17
2018-02-07T20:53:28.361Z,28.13
2018-02-07T20:55:55.905Z,28.37
2018-02-07T20:58:23.434Z,28.43
2018-02-07T21:00:50.972Z,26.83
2018-02-07T21:03:18.595Z,27.60
2018-02-07T21:05:46.221Z,28.43
2018-02-07T21:08:13.841Z,27.93
2018-02-07T21:10:41.447Z,28.27
2018-02-07T21:13:08.972Z,27.67
2018-02-07T21:15:36.906Z,28.77
2018-02-07T21:18:04.515Z,27.33
2018-02-07T21:20:32.059Z,27.67
2018-02-07T21:22:59.644Z,27.60
2018-02-07T21:25:27.343Z,28.47
2018-02-07T21:27:54.862Z,28.23
2018-02-07T21:30:22.582Z,28.70
2018-02-07T21:32:50.290Z,27.53
2018-02-07T21:35:17.887Z,27.70
2018-02-07T21:37:45.472Z,27.50
2018-02-07T21:40:13.071Z,28.17
2018-02-07T21:42:40.695Z,27.63
2018-02-07T21:45:08.364Z,26.40
2018-02-07T21:47:35.926Z,27.73
2018-02-07T21:50:03.501Z,28.20
2018-02-07T21:52:31.155Z,29.93
2018-02-07T21:54:58.834Z,28.85
2018-02-07T21:57:26.448Z,27.83
2018-02-07T21:59:54.034Z,32.13
2018-02-07T22:02:23.289Z,30.43
2018-02-07T22:04:50.800Z,27.07
2018-02-07T22:07:18.349Z,29.30
2018-02-07T22:09:45.899Z,29.00
2018-02-07T22:12:13.509Z,29.07
2018-02-07T22:14:41.260Z,28.07
2018-02-07T22:17:08.775Z,27.40
2018-02-07T22:19:36.319Z,27.52
2018-02-07T22:22:03.973Z,28.50
2018-02-07T22:24:31.558Z,27.37
2018-02-07T22:26:59.087Z,28.87
2018-02-07T22:29:26.696Z,28.03
2018-02-07T22:31:54.438Z,28.17
2018-02-07T22:34:22.005Z,27.53
2018-02-07T22:36:49.685Z,26.43
2018-02-07T22:39:17.221Z,25.70
2018-02-07T22:41:44.758Z,26.10
2018-02-07T22:44:12.295Z,27.67
2018-02-07T22:46:39.814Z,26.07
2018-02-07T22:49:07.390Z,25.80
2018-02-07T22:51:35.045Z,25.30
2018-02-07T22:54:02.623Z,26.10
2018-02-07T22:56:30.166Z,26.70
2018-02-07T22:59:00.869Z,27.83
2018-02-07T23:01:28.515Z,27.80
2018-02-07T23:03:56.290Z,26.15
2018-02-07T23:06:24.110Z,30.50
2018-02-07T23:12:02.246Z,29.00
2018-02-07T23:14:29.800Z,27.00
2018-02-07T23:16:57.330Z,26.70
2018-02-07T23:19:24.866Z,29.12
2018-02-07T23:21:52.411Z,26.60
2018-02-07T23:24:20.459Z,28.95
2018-02-07T23:26:48.054Z,27.53
2018-02-07T23:29:15.694Z,25.37
2018-02-07T23:31:43.360Z,26.90
2018-02-07T23:34:10.920Z,26.40
2018-02-07T23:36:38.553Z,25.40
2018-02-07T23:39:06.080Z,27.10
2018-02-07T23:41:33.590Z,27.60
2018-02-07T23:44:01.121Z,26.50
2018-02-07T23:46:28.731Z,27.62
2018-02-07T23:48:56.430Z,27.07
2018-02-07T23:51:24.192Z,28.40
2018-02-07T23:53:51.730Z,23.87
2018-02-07T23:56:19.275Z,28.30
2018-02-07T23:58:46.859Z,25.33
